Tiempo atmosférico en la estación meteorológica de Álora, Málaga (181 m.)



Fecha
DESCASC
Temp. máxima en grados centígrados (hora)
DESCASC
Temp. mínima en grados centígrados (hora)
DESCASC
Temp. media en grados centígrados
DESCASC
Racha de viento máxima en m/sg (hora)
DESCASC
Velocidad máxima media en intervalos de 10 minutos(hora)
DESCASC
Precipitaciones diarias en mm
DESCASC
Precipitaciones de 00:00 a 06:00 en mm
DESCASC
Precipitaciones de 06:00 a 12:00 en mm
DESCASC
Precipitaciones de 12:00 a 18:00 en mm
DESCASC
Precipitaciones de 18:00 a 24:00 en mm
DESCASC
15-08-2019 35.5 (16:00) 20.2 (07:50) 27.9 8.33 (14:50) 5.56 (12:30) 0 0 0 0 0
14-08-2019 33.2 (16:50) 23.8 (00:00) 28.5 8.61 (15:50) 5.56 (13:40) 0 0 0 0 0
13-08-2019 32.5 (15:20) 20.7 (00:00) 26.6 10.56 (16:00) 7.5 (16:40) 0 0 0 0 0
12-08-2019 36.5 (18:30) 21.5 (00:00) 29 12.22 (00:50) 6.11 (01:20) 0 0 0 0 0
11-08-2019 36.2 (17:40) 23.7 (00:00) 30 12.78 (15:40) 6.94 (13:20) 0 0 0 0 0
10-08-2019 39.7 (18:20) 24.9 (00:00) 32.3 9.17 (11:00) 5.83 (11:10) 0 0 0 0 0
09-08-2019 39.7 (17:30) 23.5 (00:00) 31.6 10.83 (18:40) 6.11 (20:30) 0 0 0 0 0
08-08-2019 39.5 (15:10) 24.8 (00:00) 32.1 8.89 (17:10) 5.83 (16:50) 0 0 0 0 0
07-08-2019 37.9 (18:20) 24.8 (00:00) 31.4 10.28 (17:20) 5.56 (19:40) 0 0 0 0 0
06-08-2019 39.7 (16:20) 21.3 (00:00) 30.5 7.78 (18:20) 5.28 (18:10) 0 0 0 0 0
05-08-2019 37.2 (13:40) 21 (00:00) 29.1 10 (15:20) 6.94 (15:10) 0 0 0 0 0
04-08-2019 36.6 (13:50) 20.9 (00:00) 28.7 9.44 (17:10) 6.39 (15:10) 0 0 0 0 0
03-08-2019 34.2 (16:30) 20.5 (00:00) 27.4 8.61 (12:10) 5.83 (13:40) 0 0 0 0 0
02-08-2019 36.2 (13:00) 20.4 (00:00) 28.3 9.72 (14:10) 7.22 (13:30) 0 0 0 0 0
01-08-2019 34.4 (16:30) 22.1 (00:00) 28.3 9.17 (17:10) 5.83 (17:10) 0 0 0 0 0
31-07-2019 30.2 (14:00) 21.4 (00:00) 25.8 13.33 (15:20) 8.61 (13:30) 0 0 0 0 0
30-07-2019 37.1 (15:10) 24 (00:00) 30.5 10.56 (04:00) 6.11 (15:30) 0 0 0 0 0
29-07-2019 37.6 (18:00) 22.3 (00:00) 29.9 9.17 (23:00) 5.28 (23:10) 0 0 0 0 0
28-07-2019 32.4 (18:10) 21.2 (00:00) 26.8 10.28 (14:40) 7.22 (14:40) 0 0 0 0 0
27-07-2019 32.1 (16:20) 21.3 (00:00) 26.7 13.33 (14:30) 8.06 (19:00) 0 0 0 0 0
26-07-2019 35.4 (15:40) 22.2 (00:00) 28.8 11.67 (19:20) 6.39 (19:30) 0 0 0 0 0
25-07-2019 34.8 (16:50) 21.3 (00:00) 28 9.44 (13:30) 6.67 (13:30) 0 0 0 0 0
24-07-2019 34.9 (16:40) 21.1 (00:00) 28 10.83 (14:20) 7.22 (14:00) 0 0 0 0 0
23-07-2019 35.3 (17:20) 22 (00:00) 28.6 13.33 (15:00) 8.33 (15:00) 0 0 0 0 0
22-07-2019 32.6 (15:10) 22.8 (00:00) 27.7 10.56 (13:10) 7.5 (15:40) 0 0 0 0 0
21-07-2019 34 (16:30) 22.9 (00:00) 28.4 9.17 (15:20) 6.11 (15:20) 0 0 0 0 0
20-07-2019 39.8 (15:20) 22.1 (00:00) 30.9 8.89 (15:30) 6.11 (15:30) 0 0 0 0 0
19-07-2019 31.8 (15:40) 19.6 (00:00) 25.7 11.11 (14:50) 7.78 (14:50) 0 0 0 0 0

Gráficas

Temp. máximas Temp. mínimas Temp. medias Precipitaciones Rachas de viento máximas Velocidades máximas media en intervalos de 10 minutos

Datos horarios

Fecha y hora oficial Temperatura (ºC) Velocidad del viento (km/h) Dirección del viento Racha (km/h) Dirección de racha Precipitación (mm) Presión (hPa) Tendencia (hPa) Humedad (%)
2019-08-17 23:00:00 27 6 Sudeste 10 Sudeste 0 -- -- 45
2019-08-17 22:00:00 28.3 0 Calma 10 Sudoeste 0 -- -- 41
2019-08-17 21:00:00 30.7 10 Sur 19 Sur 0 -- -- 35
2019-08-17 20:00:00 32.7 14 Sur 22 Sudeste 0 -- -- 31
2019-08-17 19:00:00 33.9 17 Sudeste 24 Sur 0 -- -- 30
2019-08-17 18:00:00 35.4 18 Sudeste 25 Sudeste 0 -- -- 27
2019-08-17 17:00:00 35.8 18 Sur 31 Sur 0 -- -- 27
2019-08-17 16:00:00 35.8 21 Sur 30 Sur 0 -- -- 25
2019-08-17 15:00:00 35 23 Sur 32 Sur 0 -- -- 27
2019-08-17 14:00:00 35.1 23 Sur 30 Sur 0 -- -- 29
2019-08-17 13:00:00 34 16 Sur 27 Sudeste 0 -- -- 33
2019-08-17 12:00:00 32.3 17 Sudeste 21 Sur 0 -- -- 34
2019-08-17 11:00:00 28.3 3 Sudeste 8 Sudeste 0 -- -- 44
2019-08-17 10:00:00 24.2 3 Sur 5 Sudeste 0 -- -- 49
2019-08-17 09:00:00 21.1 0 Calma 3 Este 0 -- -- 54
2019-08-17 08:00:00 19.7 0 Calma 5 Noroeste 0 -- -- 59
2019-08-17 07:00:00 20.2 2 Norte 4 Oeste 0 -- -- 60
2019-08-17 06:00:00 20.5 3 Oeste 4 Oeste 0 -- -- 59
2019-08-17 05:00:00 21.3 0 Calma 4 Oeste 0 -- -- 60
2019-08-17 04:00:00 21.7 0 Calma 3 Nordeste 0 -- -- 57
2019-08-17 03:00:00 22.7 2 Sudeste 2 Sudeste 0 -- -- 54
2019-08-17 02:00:00 23.5 0 Calma 7 Este 0 -- -- 56
2019-08-17 01:00:00 24.1 4 Sudeste 10 Sudeste 0 -- -- 64
2019-08-17 00:00:00 24.8 6 Sudeste 9 Sudeste 0 -- -- 62
2019-08-16 23:00:00 26 6 Sudeste 17 Sudoeste 0 -- -- 49
2019-08-16 22:00:00 27.4 12 Sudoeste 17 Sudoeste 0 -- -- 45
2019-08-16 21:00:00 29.2 12 Sur 18 Sur 0 -- -- 43
2019-08-16 20:00:00 32 14 Sur 25 Sudeste 0 -- -- 34
2019-08-16 19:00:00 33.5 18 Sur 27 Sur 0 -- -- 30
2019-08-16 18:00:00 34.5 17 Sur 29 Sur 0 -- -- 27
2019-08-16 17:00:00 35.5 18 Sur 29 Sur 0 -- -- 28
2019-08-16 16:00:00 35.3 19 Sudeste 32 Sur 0 -- -- 27
2019-08-16 15:00:00 35 20 Sur 29 Sur 0 -- -- 25
2019-08-16 14:00:00 34.1 21 Sur 32 Sur 0 -- -- 31
2019-08-16 13:00:00 33.3 18 Sur 28 Sur 0 -- -- 33
2019-08-16 12:00:00 31.8 13 Sur 19 Sur 0 -- -- 34
2019-08-16 11:00:00 28.8 11 Sudeste 15 Sudeste 0 -- -- 39
2019-08-16 10:00:00 25.2 4 Sudeste 7 Sudeste 0 -- -- 43
2019-08-16 09:00:00 22 0 Calma 5 Norte 0 -- -- 51
2019-08-16 08:00:00 20.9 2 Sur 3 Norte 0 -- -- 50
2019-08-16 07:00:00 21.3 0 Calma 4 Sudeste 0 -- -- 50
2019-08-16 06:00:00 22.1 2 Noroeste 3 Noroeste 0 -- -- 48
2019-08-16 05:00:00 22.6 2 Nordeste 5 Noroeste 0 -- -- 47
2019-08-16 04:00:00 22.9 0 Calma 3 Noroeste 0 -- -- 46
2019-08-16 03:00:00 23.3 0 Calma 4 Norte 0 -- -- 46
2019-08-16 02:00:00 24.1 0 Calma 6 Este 0 -- -- 44
2019-08-16 01:00:00 25.1 4 Este 9 Este 0 -- -- 42
2019-08-16 00:00:00 26.1 0 Calma 8 Este 0 -- -- 40
2019-08-15 23:00:00 26.9 0 Calma 8 Sudoeste 0 -- -- 39
2019-08-15 22:00:00 28 5 Sur 15 Sur 0 -- -- 37
2019-08-15 21:00:00 29.5 12 Sur 22 Sudoeste 0 -- -- 36
2019-08-15 20:00:00 31.9 14 Sudeste 24 Sudeste 0 -- -- 33
2019-08-15 19:00:00 33.2 16 Sudeste 27 Sudeste 0 -- -- 31
2019-08-15 18:00:00 34.4 14 Sudeste 27 Sur 0 -- -- 30
2019-08-15 17:00:00 35 16 Sudeste 29 Sudeste 0 -- -- 27
2019-08-15 16:00:00 35.5 17 Sur 28 Sudeste 0 -- -- 30
2019-08-15 15:00:00 34.6 18 Sudeste 30 Sur 0 -- -- 31
2019-08-15 14:00:00 34.4 16 Sur 28 Sur 0 -- -- 31
2019-08-15 13:00:00 33.3 19 Sur 29 Sur 0 -- -- 35
2019-08-15 12:00:00 31.6 17 Sur 25 Sur 0 -- -- 43
2019-08-15 11:00:00 28.2 3 Sudeste 8 Sudeste 0 -- -- 55
2019-08-15 10:00:00 23.3 2 Oeste 5 Sur 0 -- -- 74
2019-08-15 09:00:00 21.1 0 Calma 3 Sudeste 0 -- -- 81
2019-08-15 08:00:00 20.2 0 Calma 0 Calma 0 -- -- 84
2019-08-15 07:00:00 20.6 0 Calma 2 Sudeste 0 -- -- 82
2019-08-15 06:00:00 21 0 Calma 2 Sur 0 -- -- 82
2019-08-15 05:00:00 21.4 0 Calma 2 Nordeste 0 -- -- 83
2019-08-15 04:00:00 22.1 0 Calma 2 Oeste 0 -- -- 83
2019-08-15 03:00:00 22.6 0 Calma 7 Sudeste 0 -- -- 81
2019-08-15 02:00:00 23.2 2 Sudeste 7 Sudeste 0 -- -- 80
2019-08-15 01:00:00 23.7 0 Calma 8 Sur 0 -- -- 78
2019-08-15 00:00:00 24.4 5 Sudeste 12 Sudeste 0 -- -- 74
2019-08-14 23:00:00 25.7 3 Sur 15 Sur 0 -- -- 65
2019-08-14 22:00:00 26.4 13 Sur 18 Sur 0 -- -- 65
2019-08-14 21:00:00 28.3 12 Sur 21 Sur 0 -- -- 57
2019-08-14 20:00:00 30.5 16 Sur 24 Sur 0 -- -- 50
2019-08-14 19:00:00 31.9 17 Sur 26 Sudeste 0 -- -- 45
2019-08-14 18:00:00 32.7 19 Sur 27 Sur 0 -- -- 43
2019-08-14 17:00:00 33.2 18 Sur 30 Sur 0 -- -- 43
2019-08-14 16:00:00 32.6 14 Sur 31 Sudeste 0 -- -- 46
2019-08-14 15:00:00 32 17 Sur 30 Sur 0 -- -- 49
2019-08-14 14:00:00 30.5 18 Sur 28 Sur 0 -- -- 55
2019-08-14 13:00:00 29.6 14 Sudeste 28 Sudeste 0 -- -- 57
2019-08-14 12:00:00 28.2 17 Sudeste 26 Sur 0 -- -- 62
2019-08-14 11:00:00 27.1 11 Sudeste 21 Sur 0 -- -- 69
2019-08-14 10:00:00 25 9 Sur 15 Sur 0 -- -- 80
2019-08-14 09:00:00 24.3 8 Sur 13 Sur 0 -- -- 84
2019-08-14 08:00:00 23.8 10 Sur 14 Sur 0 -- -- 85
2019-08-14 07:00:00 23.8 8 Sur 17 Sur 0 -- -- 86
2019-08-14 06:00:00 23.9 9 Sur 14 Sur 0 -- -- 86
2019-08-14 05:00:00 24.1 10 Sur 14 Sur 0 -- -- 85
2019-08-14 04:00:00 24.2 10 Sur 13 Sur 0 -- -- 84
2019-08-14 03:00:00 24.2 10 Sur 15 Sur 0 -- -- 83
2019-08-14 02:00:00 24.4 10 Sur 14 Sur 0 -- -- 82
2019-08-14 01:00:00 24.2 7 Sur 20 Sur 0 -- -- 82
2019-08-14 00:00:00 24.3 16 Sur 22 Sur 0 -- -- 78
2019-08-13 23:00:00 25.1 12 Sur 18 Sur 0 -- -- 73
2019-08-13 22:00:00 25.6 11 Sur 19 Sudeste 0 -- -- 72
2019-08-13 21:00:00 26.8 11 Sudeste 23 Sudeste 0 -- -- 67
2019-08-13 20:00:00 28.1 17 Sudeste 27 Sudeste 0 -- -- 63
2019-08-13 19:00:00 29.3 17 Sudeste 30 Sudeste 0 -- -- 58
2019-08-13 18:00:00 30.5 22 Sudeste 38 Sudeste 0 -- -- 52
2019-08-13 17:00:00 30.9 24 Sudeste 36 Sudeste 0 -- -- 50
2019-08-13 16:00:00 31.8 23 Sudeste 38 Sudeste 0 -- -- 48
2019-08-13 15:00:00 32 17 Sudeste 35 Sudeste 0 -- -- 45
2019-08-13 14:00:00 31.1 19 Sudeste 33 Sudeste 0 -- -- 48
2019-08-13 13:00:00 30.1 16 Sudeste 33 Sudeste 0 -- -- 52
2019-08-13 12:00:00 28.7 21 Sur 29 Sudeste 0 -- -- 60
2019-08-13 11:00:00 26.6 9 Sur 16 Sur 0 -- -- 66
2019-08-13 10:00:00 24.2 0 Calma 7 Sudoeste 0 -- -- 56
2019-08-13 09:00:00 22.1 0 Calma 4 Oeste 0 -- -- 54
2019-08-13 08:00:00 21.1 3 Noroeste 8 Norte 0 -- -- 52
2019-08-13 07:00:00 21 3 Sudeste 8 Norte 0 -- -- 51
2019-08-13 06:00:00 21.4 0 Calma 4 Oeste 0 -- -- 47
2019-08-13 05:00:00 22 0 Calma 7 Nordeste 0 -- -- 44
2019-08-13 04:00:00 22.9 4 Este 11 Este 0 -- -- 42
2019-08-13 03:00:00 23.4 4 Este 9 Este 0 -- -- 39
2019-08-13 02:00:00 23.7 4 Este 7 Este 0 -- -- 34
2019-08-13 01:00:00 24 4 Nordeste 6 Nordeste 0 -- -- 30
2019-08-13 00:00:00 24.7 3 Sudeste 10 Sudeste 0 -- -- 35
2019-08-12 23:00:00 26.3 7 Sudeste 16 Sudeste 0 -- -- 30
2019-08-12 22:00:00 29.4 7 Noroeste 15 Noroeste 0 -- -- 18
2019-08-12 21:00:00 31.5 12 Noroeste 23 Noroeste 0 -- -- 17
2019-08-12 20:00:00 34.6 15 Oeste 31 Oeste 0 -- -- 15
2019-08-12 19:00:00 36.1 13 Noroeste 28 Oeste 0 -- -- 13
2019-08-12 18:00:00 36.2 11 Noroeste 31 Oeste 0 -- -- 14
2019-08-12 17:00:00 36.2 10 Noroeste 29 Oeste 0 -- -- 15
2019-08-12 16:00:00 35.4 12 Noroeste 27 Oeste 0 -- -- 17
2019-08-12 15:00:00 34.3 10 Norte 31 Noroeste 0 -- -- 19
2019-08-12 14:00:00 31.8 19 Norte 33 Norte 0 -- -- 20
2019-08-12 13:00:00 29.5 18 Norte 35 Norte 0 -- -- 22
2019-08-12 12:00:00 28.4 10 Noroeste 30 Noroeste 0 -- -- 26
2019-08-12 11:00:00 27.5 12 Noroeste 26 Noroeste 0 -- -- 28
2019-08-12 10:00:00 24.4 12 Noroeste 27 Noroeste 0 -- -- 32
2019-08-12 09:00:00 22.7 11 Noroeste 29 Noroeste 0 -- -- 35
2019-08-12 08:00:00 21.5 9 Noroeste 22 Oeste 0 -- -- 37
2019-08-12 07:00:00 21.8 11 Noroeste 24 Noroeste 0 -- -- 36
2019-08-12 06:00:00 22.4 11 Noroeste 31 Oeste 0 -- -- 35
2019-08-12 05:00:00 22.9 10 Noroeste 33 Noroeste 0 -- -- 33
2019-08-12 04:00:00 23.8 13 Noroeste 28 Oeste 0 -- -- 32
2019-08-12 03:00:00 24.4 11 Noroeste 35 Oeste 0 -- -- 32
2019-08-12 02:00:00 25.5 17 Noroeste 40 Noroeste 0 -- -- 32
2019-08-12 01:00:00 26.9 20 Noroeste 44 Noroeste 0 -- -- 33
2019-08-12 00:00:00 27.6 15 Noroeste 39 Oeste 0 -- -- 32
2019-08-11 23:00:00 28.2 14 Noroeste 33 Oeste 0 -- -- 27
2019-08-11 22:00:00 29.2 12 Noroeste 28 Oeste 0 -- -- 24
2019-08-11 21:00:00 30.8 13 Noroeste 31 Noroeste 0 -- -- 23
2019-08-11 20:00:00 33.8 13 Noroeste 43 Oeste 0 -- -- 20
2019-08-11 19:00:00 35 16 Noroeste 37 Oeste 0 -- -- 19
2019-08-11 18:00:00 36 16 Noroeste 37 Oeste 0 -- -- 20
2019-08-11 17:00:00 35.7 20 Noroeste 41 Oeste 0 -- -- 19
2019-08-11 16:00:00 35 24 Noroeste 46 Oeste 0 -- -- 20
2019-08-11 15:00:00 34.2 20 Noroeste 43 Oeste 0 -- -- 21
2019-08-11 14:00:00 33.4 23 Noroeste 43 Noroeste 0 -- -- 22
2019-08-11 13:00:00 33 14 Noroeste 31 Oeste 0 -- -- 28
2019-08-11 12:00:00 30.2 10 Noroeste 23 Oeste 0 -- -- 30
2019-08-11 11:00:00 27.6 13 Oeste 27 Oeste 0 -- -- 38
2019-08-11 10:00:00 26 14 Oeste 26 Noroeste 0 -- -- 41
2019-08-11 09:00:00 24.8 9 Noroeste 19 Noroeste 0 -- -- 43
2019-08-11 08:00:00 23.7 10 Noroeste 31 Oeste 0 -- -- 45
2019-08-11 07:00:00 24.1 11 Noroeste 30 Oeste 0 -- -- 43
2019-08-11 06:00:00 24.9 17 Noroeste 35 Noroeste 0 -- -- 39
2019-08-11 05:00:00 25.8 11 Noroeste 29 Noroeste 0 -- -- 36
2019-08-11 04:00:00 26.9 10 Noroeste 28 Oeste 0 -- -- 35
2019-08-11 03:00:00 27.4 15 Norte 29 Oeste 0 -- -- 42
2019-08-11 02:00:00 28 10 Noroeste 21 Noroeste 0 -- -- 44
2019-08-11 01:00:00 28.9 13 Noroeste 22 Norte 0 -- -- 46
2019-08-11 00:00:00 29.9 7 Noroeste 24 Norte 0 -- -- 45
2019-08-10 23:00:00 31.1 12 Noroeste 31 Noroeste 0 -- -- 44
2019-08-10 22:00:00 33.1 17 Noroeste 31 Noroeste 0 -- -- 42
2019-08-10 21:00:00 35.9 10 Noroeste 25 Oeste 0 -- -- 33
2019-08-10 20:00:00 38.7 11 Oeste 19 Oeste 0 -- -- 29
2019-08-10 19:00:00 39.3 11 Oeste 26 Norte 0 -- -- 29
2019-08-10 18:00:00 39.5 9 Noroeste 25 Oeste 0 -- -- 28
2019-08-10 17:00:00 38.8 8 Oeste 30 Oeste 0 -- -- 30
2019-08-10 16:00:00 38.3 14 Oeste 30 Oeste 0 -- -- 29
2019-08-10 15:00:00 36.8 14 Oeste 31 Oeste 0 -- -- 33
2019-08-10 14:00:00 35.3 18 Oeste 31 Noroeste 0 -- -- 39
2019-08-10 13:00:00 33.4 14 Noroeste 32 Oeste 0 -- -- 44
2019-08-10 12:00:00 31.2 12 Noroeste 33 Oeste 0 -- -- 50
2019-08-10 11:00:00 28.5 16 Oeste 33 Oeste 0 -- -- 58
2019-08-10 10:00:00 26.6 12 Noroeste 33 Oeste 0 -- -- 63
2019-08-10 09:00:00 25.5 5 Noroeste 20 Norte 0 -- -- 66
2019-08-10 08:00:00 24.9 8 Noroeste 26 Noroeste 0 -- -- 69
2019-08-10 07:00:00 25.4 9 Noroeste 22 Noroeste 0 -- -- 67
2019-08-10 06:00:00 26 8 Norte 24 Oeste 0 -- -- 63
2019-08-10 05:00:00 26.4 9 Noroeste 21 Noroeste 0 -- -- 61
2019-08-10 04:00:00 26.8 8 Noroeste 25 Oeste 0 -- -- 58
2019-08-10 03:00:00 27.5 10 Noroeste 29 Noroeste 0 -- -- 54
2019-08-10 02:00:00 28.1 12 Noroeste 29 Noroeste 0 -- -- 49
2019-08-10 01:00:00 28.8 10 Norte 22 Noroeste 0 -- -- 40
2019-08-10 00:00:00 29.5 11 Noroeste 24 Oeste 0 -- -- 38
2019-08-09 23:00:00 30.4 11 Noroeste 28 Noroeste 0 -- -- 34
2019-08-09 22:00:00 31.8 15 Noroeste 27 Oeste 0 -- -- 31
2019-08-09 21:00:00 33.4 13 Noroeste 37 Oeste 0 -- -- 30
2019-08-09 20:00:00 35.9 18 Noroeste 35 Oeste 0 -- -- 30
2019-08-09 19:00:00 37.9 21 Noroeste 39 Oeste 0 -- -- 27
2019-08-09 18:00:00 39.4 14 Noroeste 35 Oeste 0 -- -- 24
2019-08-09 17:00:00 39.5 14 Noroeste 30 Noroeste 0 -- -- 24
2019-08-09 16:00:00 38.7 15 Noroeste 35 Noroeste 0 -- -- 27
2019-08-09 15:00:00 37.7 12 Noroeste 33 Noroeste 0 -- -- 27
2019-08-09 14:00:00 36.5 16 Noroeste 36 Noroeste 0 -- -- 28
2019-08-09 13:00:00 34.3 16 Noroeste 33 Oeste 0 -- -- 29
2019-08-09 12:00:00 33.3 12 Noroeste 29 Oeste 0 -- -- 30
2019-08-09 11:00:00 30 15 Noroeste 28 Oeste 0 -- -- 41
2019-08-09 10:00:00 28.5 9 Noroeste 19 Noroeste 0 -- -- 42
2019-08-09 09:00:00 25.5 14 Noroeste 24 Norte 0 -- -- 43
2019-08-09 08:00:00 23.5 10 Norte 22 Noroeste 0 -- -- 46
2019-08-09 07:00:00 23.9 9 Noroeste 18 Norte 0 -- -- 42
2019-08-09 06:00:00 24.3 13 Norte 21 Norte 0 -- -- 42
2019-08-09 05:00:00 24.5 10 Noroeste 22 Noroeste 0 -- -- 44
2019-08-09 04:00:00 25.8 13 Norte 20 Norte 0 -- -- 43
2019-08-09 03:00:00 26 12 Noroeste 19 Norte 0 -- -- 44
2019-08-09 02:00:00 25.3 7 Norte 12 Norte 0 -- -- 45
2019-08-09 01:00:00 25.8 4 Nordeste 6 Sudeste 0 -- -- 47
2019-08-09 00:00:00 26.9 5 Sudeste 12 Este 0 -- -- 47
2019-08-08 23:00:00 27.7 9 Sudeste 13 Sudeste 0 -- -- 45
2019-08-08 22:00:00 31.1 6 Sudeste 19 Sudoeste 0 -- -- 32
2019-08-08 21:00:00 33.4 10 Sur 22 Sur 0 -- -- 29
2019-08-08 20:00:00 36.5 14 Sur 22 Sur 0 -- -- 24
2019-08-08 19:00:00 37.7 15 Sur 25 Sur 0 -- -- 23
2019-08-08 18:00:00 38.1 19 Sudeste 32 Sur 0 -- -- 22
2019-08-08 17:00:00 38.6 19 Sudeste 31 Sur 0 -- -- 23
2019-08-08 16:00:00 39.4 10 Sur 22 Sur 0 -- -- 23
2019-08-08 15:00:00 39 9 Sudeste 18 Sur 0 -- -- 21
2019-08-08 14:00:00 37.8 5 Sudoeste 14 Sudoeste 0 -- -- 22
2019-08-08 13:00:00 35.5 8 Oeste 16 Oeste 0 -- -- 29
2019-08-08 12:00:00 33 10 Noroeste 20 Oeste 0 -- -- 35
2019-08-08 11:00:00 30.8 11 Noroeste 21 Oeste 0 -- -- 39
2019-08-08 10:00:00 29 11 Noroeste 28 Noroeste 0 -- -- 42
2019-08-08 09:00:00 26.6 13 Noroeste 28 Oeste 0 -- -- 47
2019-08-08 08:00:00 25 10 Noroeste 24 Oeste 0 -- -- 50
2019-08-08 07:00:00 25 10 Noroeste 20 Oeste 0 -- -- 49
2019-08-08 06:00:00 25.7 12 Noroeste 24 Norte 0 -- -- 48
2019-08-08 05:00:00 26.2 10 Noroeste 23 Norte 0 -- -- 47
2019-08-08 04:00:00 27.4 9 Norte 29 Norte 0 -- -- 42
2019-08-08 03:00:00 27.6 13 Noroeste 26 Noroeste 0 -- -- 41
2019-08-08 02:00:00 28.3 10 Norte 24 Norte 0 -- -- 36
2019-08-08 01:00:00 29.1 7 Noroeste 24 Noroeste 0 -- -- 34
2019-08-08 00:00:00 29.9 10 Noroeste 29 Noroeste 0 -- -- 33
2019-08-07 23:00:00 31.2 14 Noroeste 28 Noroeste 0 -- -- 31
2019-08-07 22:00:00 32 14 Noroeste 27 Oeste 0 -- -- 28
2019-08-07 21:00:00 33.4 12 Noroeste 29 Norte 0 -- -- 27
2019-08-07 20:00:00 36 15 Noroeste 35 Noroeste 0 -- -- 25
2019-08-07 19:00:00 37.4 13 Noroeste 35 Norte 0 -- -- 25
2019-08-07 18:00:00 36.7 14 Norte 37 Norte 0 -- -- 25
2019-08-07 17:00:00 36.2 17 Norte 34 Norte 0 -- -- 25
2019-08-07 16:00:00 37.2 14 Noroeste 31 Noroeste 0 -- -- 24
2019-08-07 15:00:00 37.6 11 Noroeste 32 Oeste 0 -- -- 22
2019-08-07 14:00:00 36.1 17 Oeste 28 Oeste 0 -- -- 23
2019-08-07 13:00:00 34.6 11 Noroeste 25 Oeste 0 -- -- 26
2019-08-07 12:00:00 33.4 14 Noroeste 29 Oeste 0 -- -- 27
2019-08-07 11:00:00 30.5 12 Noroeste 26 Oeste 0 -- -- 31
2019-08-07 10:00:00 29.1 12 Noroeste 23 Noroeste 0 -- -- 31
2019-08-07 09:00:00 26.6 11 Noroeste 19 Norte 0 -- -- 31
2019-08-07 08:00:00 24.8 12 Noroeste 23 Norte 0 -- -- 28
2019-08-07 07:00:00 26 12 Noroeste 25 Noroeste 0 -- -- 24
2019-08-07 06:00:00 25.5 11 Norte 24 Noroeste 0 -- -- 25
2019-08-07 05:00:00 26.2 10 Noroeste 20 Noroeste 0 -- -- 25
2019-08-07 04:00:00 27.2 14 Noroeste 24 Norte 0 -- -- 26
2019-08-07 03:00:00 27.4 9 Norte 27 Noroeste 0 -- -- 27
2019-08-07 02:00:00 27.2 11 Noroeste 18 Noroeste 0 -- -- 31
2019-08-07 01:00:00 26.3 10 Norte 13 Norte 0 -- -- 36
2019-08-07 00:00:00 26.7 4 Sudeste 10 Sudeste 0 -- -- 43
2019-08-06 23:00:00 28.6 5 Este 10 Sudeste 0 -- -- 38
2019-08-06 22:00:00 29.8 5 Sudeste 15 Sudeste 0 -- -- 36
2019-08-06 21:00:00 34.2 9 Sudeste 17 Sudeste 0 -- -- 31
2019-08-06 20:00:00 36.9 14 Sur 24 Sur 0 -- -- 24
2019-08-06 19:00:00 37.8 15 Sur 28 Sudeste 0 -- -- 24
2019-08-06 18:00:00 39.4 15 Sur 25 Sudeste 0 -- -- 22
2019-08-06 17:00:00 39.5 14 Sur 27 Sudeste 0 -- -- 21
2019-08-06 16:00:00 39.5 10 Sur 28 Sur 0 -- -- 21
2019-08-06 15:00:00 39.2 13 Sur 23 Sur 0 -- -- 20
2019-08-06 14:00:00 37.9 7 Sudeste 19 Sudeste 0 -- -- 19
2019-08-06 13:00:00 36.2 6 Sudoeste 13 Sudoeste 0 -- -- 23
2019-08-06 12:00:00 33.6 4 Sudoeste 9 Sur 0 -- -- 24
2019-08-06 11:00:00 30.5 3 Nordeste 8 Nordeste 0 -- -- 29
2019-08-06 10:00:00 26.9 4 Noroeste 12 Norte 0 -- -- 40
2019-08-06 09:00:00 25.2 6 Norte 19 Norte 0 -- -- 42
2019-08-06 08:00:00 22.5 9 Norte 19 Norte 0 -- -- 47
2019-08-06 07:00:00 21.3 0 Calma 7 Nordeste 0 -- -- 64
2019-08-06 06:00:00 21.7 0 Calma 4 Sudeste 0 -- -- 67
2019-08-06 05:00:00 22.2 2 Noroeste 6 Nordeste 0 -- -- 64
2019-08-06 04:00:00 22.8 2 Este 6 Sur 0 -- -- 68
2019-08-06 03:00:00 23.9 3 Nordeste 5 Nordeste 0 -- -- 61
2019-08-06 02:00:00 24.6 0 Calma 5 Sudeste 0 -- -- 61
2019-08-06 01:00:00 25.2 0 Calma 10 Sudeste 0 -- -- 59
2019-08-06 00:00:00 26 7 Sudeste 10 Sudeste 0 -- -- 56
2019-08-05 23:00:00 27.1 5 Sudeste 12 Sudeste 0 -- -- 55
2019-08-05 22:00:00 28.7 7 Sudeste 13 Sudeste 0 -- -- 51
2019-08-05 21:00:00 31.2 11 Sudeste 20 Sur 0 -- -- 45
2019-08-05 20:00:00 33.1 15 Sur 24 Sur 0 -- -- 42
2019-08-05 19:00:00 34.4 17 Sur 25 Sur 0 -- -- 39
2019-08-05 18:00:00 35 17 Sur 28 Sur 0 -- -- 38
2019-08-05 17:00:00 34.9 22 Sur 28 Sur 0 -- -- 37
2019-08-05 16:00:00 35.1 18 Sur 36 Sur 0 -- -- 35
2019-08-05 15:00:00 35.2 22 Sur 33 Sudeste 0 -- -- 35
2019-08-05 14:00:00 36.2 21 Sur 31 Sur 0 -- -- 35
2019-08-05 13:00:00 36.1 6 Sur 13 Sudoeste 0 -- -- 29
2019-08-05 12:00:00 32.9 5 Sur 12 Sudeste 0 -- -- 30
2019-08-05 11:00:00 29.8 4 Sudoeste 9 Sudoeste 0 -- -- 38
2019-08-05 10:00:00 26.3 3 Sudoeste 6 Sudoeste 0 -- -- 45
2019-08-05 09:00:00 23.2 0 Calma 6 Nordeste 0 -- -- 56
2019-08-05 08:00:00 21.2 2 Norte 4 Noroeste 0 -- -- 69
2019-08-05 07:00:00 21 0 Calma 3 Noroeste 0 -- -- 68
2019-08-05 06:00:00 21.3 0 Calma 3 Nordeste 0 -- -- 71
2019-08-05 05:00:00 21.8 0 Calma 15 Sudeste 0 -- -- 72
2019-08-05 04:00:00 21.8 9 Sudeste 14 Sudeste 0 -- -- 69
2019-08-05 03:00:00 23.2 0 Calma 5 Nordeste 0 -- -- 62
2019-08-05 02:00:00 23.5 0 Calma 4 Nordeste 0 -- -- 62
2019-08-05 01:00:00 23.9 3 Este 7 Este 0 -- -- 62
2019-08-05 00:00:00 24.4 4 Sudeste 13 Sudeste 0 -- -- 62
2019-08-04 23:00:00 26 8 Sudeste 14 Sudeste 0 -- -- 52
2019-08-04 22:00:00 27.8 7 Sudeste 19 Sudeste 0 -- -- 48
2019-08-04 21:00:00 30.4 14 Sudeste 19 Sudeste 0 -- -- 41
2019-08-04 20:00:00 33.4 14 Sur 22 Sur 0 -- -- 37
2019-08-04 19:00:00 34.5 14 Sur 30 Sur 0 -- -- 35
2019-08-04 18:00:00 34.5 16 Sur 34 Sur 0 -- -- 36
2019-08-04 17:00:00 35.5 21 Sur 31 Sur 0 -- -- 34
2019-08-04 16:00:00 36.1 21 Sur 33 Sur 0 -- -- 34
2019-08-04 15:00:00 36.4 21 Sur 30 Sur 0 -- -- 34
2019-08-04 14:00:00 36.3 17 Sur 27 Sur 0 -- -- 34
2019-08-04 13:00:00 34.1 4 Noroeste 20 Oeste 0 -- -- 34
2019-08-04 12:00:00 32.5 9 Noroeste 22 Noroeste 0 -- -- 35
2019-08-04 11:00:00 31.2 10 Noroeste 23 Oeste 0 -- -- 39
2019-08-04 10:00:00 28.5 10 Noroeste 22 Noroeste 0 -- -- 47
2019-08-04 09:00:00 24.6 9 Noroeste 18 Oeste 0 -- -- 62
2019-08-04 08:00:00 21 0 Calma 7 Norte 0 -- -- 75
2019-08-04 07:00:00 21.2 2 Norte 5 Norte 0 -- -- 79
2019-08-04 06:00:00 21.5 2 Norte 4 Norte 0 -- -- 80
2019-08-04 05:00:00 21.8 0 Calma 8 Sudeste 0 -- -- 81
2019-08-04 04:00:00 22.3 5 Sudeste 9 Sudeste 0 -- -- 79
2019-08-04 03:00:00 23 0 Calma 5 Oeste 0 -- -- 74
2019-08-04 02:00:00 23.2 0 Calma 10 Sudeste 0 -- -- 74
2019-08-04 01:00:00 23.4 9 Sudeste 14 Sudeste 0 -- -- 75
2019-08-04 00:00:00 24.9 5 Sudeste 11 Sudeste 0 -- -- 66
2019-08-03 23:00:00 26.1 5 Sur 18 Sur 0 -- -- 60
2019-08-03 22:00:00 27.1 13 Sur 22 Sur 0 -- -- 58
2019-08-03 21:00:00 29.2 13 Sur 23 Sur 0 -- -- 52
2019-08-03 20:00:00 31.1 15 Sur 22 Sur 0 -- -- 47
2019-08-03 19:00:00 31.8 14 Sur 28 Sudeste 0 -- -- 47
2019-08-03 18:00:00 32.3 16 Sudeste 28 Sudeste 0 -- -- 46
2019-08-03 17:00:00 32.9 18 Sudeste 29 Sur 0 -- -- 44
2019-08-03 16:00:00 33.6 21 Sur 31 Sudeste 0 -- -- 42
2019-08-03 15:00:00 33.4 17 Sur 29 Sur 0 -- -- 43
2019-08-03 14:00:00 31.9 18 Sur 30 Sur 0 -- -- 47
2019-08-03 13:00:00 30.1 18 Sudeste 31 Sur 0 -- -- 53
2019-08-03 12:00:00 28.7 19 Sudeste 27 Sur 0 -- -- 57
2019-08-03 11:00:00 27.7 17 Sur 24 Sur 0 -- -- 62
2019-08-03 10:00:00 25 5 Sudeste 8 Sudeste 0 -- -- 69
2019-08-03 09:00:00 21.9 3 Sur 5 Sur 0 -- -- 79
2019-08-03 08:00:00 20.8 0 Calma 3 Sudeste 0 -- -- 85
2019-08-03 07:00:00 20.9 0 Calma 4 Noroeste 0 -- -- 87
2019-08-03 06:00:00 21.2 0 Calma 3 Sudoeste 0 -- -- 87
2019-08-03 05:00:00 21.4 3 Noroeste 11 Sudeste 0 -- -- 85
2019-08-03 04:00:00 22.1 3 Sur 5 Este 0 -- -- 82
2019-08-03 03:00:00 22.4 3 Este 9 Sudeste 0 -- -- 83
2019-08-03 02:00:00 22.7 6 Sudeste 13 Sudeste 0 -- -- 82
2019-08-03 01:00:00 23.7 6 Sudeste 11 Sur 0 -- -- 76
2019-08-03 00:00:00 25.2 6 Sudeste 10 Sudeste 0 -- -- 64
2019-08-02 23:00:00 26.7 5 Sudeste 17 Sur 0 -- -- 54
2019-08-02 22:00:00 27.9 15 Sur 21 Sur 0 -- -- 54
2019-08-02 21:00:00 29.9 14 Sur 21 Sur 0 -- -- 50
2019-08-02 20:00:00 31.7 17 Sur 22 Sur 0 -- -- 48
2019-08-02 19:00:00 32.9 18 Sur 27 Sur 0 -- -- 44
2019-08-02 18:00:00 33 19 Sur 32 Sur 0 -- -- 44
2019-08-02 17:00:00 34.3 18 Sur 28 Sudoeste 0 -- -- 42
2019-08-02 16:00:00 33.5 20 Sur 29 Sur 0 -- -- 41
2019-08-02 15:00:00 33.3 23 Sur 35 Sur 0 -- -- 41
2019-08-02 14:00:00 33.9 25 Sur 33 Sur 0 -- -- 43
2019-08-02 13:00:00 36.2 10 Noroeste 27 Oeste 0 -- -- 27
2019-08-02 12:00:00 34.1 12 Noroeste 26 Oeste 0 -- -- 29
2019-08-02 11:00:00 31.3 10 Noroeste 25 Noroeste 0 -- -- 35
2019-08-02 10:00:00 26.8 12 Noroeste 23 Noroeste 0 -- -- 50
2019-08-02 09:00:00 21.9 2 Nordeste 8 Noroeste 0 -- -- 78
2019-08-02 08:00:00 20.4 0 Calma 4 Norte 0 -- -- 83
2019-08-02 07:00:00 20.4 2 Norte 5 Norte 0 -- -- 82
2019-08-02 06:00:00 20.9 2 Norte 5 Norte 0 -- -- 84
2019-08-02 05:00:00 21.4 0 Calma 8 Sur 0 -- -- 84
2019-08-02 04:00:00 21.8 6 Sudeste 11 Sudeste 0 -- -- 83
2019-08-02 03:00:00 22.3 5 Sudeste 12 Sur 0 -- -- 80
2019-08-02 02:00:00 23 4 Sudeste 10 Sudeste 0 -- -- 76
2019-08-02 01:00:00 23.9 4 Sudeste 16 Sudeste 0 -- -- 74
2019-08-02 00:00:00 24.4 15 Sudeste 24 Sur 0 -- -- 72
2019-08-01 23:00:00 26.1 3 Sur 17 Sudeste 0 -- -- 65
2019-08-01 22:00:00 27.4 14 Sudeste 22 Sur 0 -- -- 60
2019-08-01 21:00:00 29.5 15 Sur 22 Sur 0 -- -- 54
2019-08-01 20:00:00 30.9 17 Sur 30 Sur 0 -- -- 51
2019-08-01 19:00:00 32.6 18 Sur 27 Sur 0 -- -- 46
2019-08-01 18:00:00 33.3 16 Sur 33 Sur 0 -- -- 45
2019-08-01 17:00:00 33.5 19 Sur 29 Sudeste 0 -- -- 45
2019-08-01 16:00:00 34.1 18 Sur 28 Sur 0 -- -- 44
2019-08-01 15:00:00 33.7 10 Sur 24 Sur 0 -- -- 43
2019-08-01 14:00:00 32.8 10 Sur 22 Sur 0 -- -- 44
2019-08-01 13:00:00 30.4 9 Sudeste 21 Sur 0 -- -- 49
2019-08-01 12:00:00 29.4 9 Sur 17 Sudeste 0 -- -- 52
2019-08-01 11:00:00 27.3 12 Sudeste 19 Sudeste 0 -- -- 58
2019-08-01 10:00:00 25.6 5 Este 9 Sudeste 0 -- -- 66
2019-08-01 09:00:00 23.7 5 Nordeste 10 Nordeste 0 -- -- 75
2019-08-01 08:00:00 22.2 8 Nordeste 13 Este 0 -- -- 79
2019-08-01 07:00:00 22.5 7 Este 15 Sudeste 0 -- -- 78
2019-08-01 06:00:00 22.8 9 Este 15 Sudeste 0 -- -- 77
2019-08-01 05:00:00 22.9 3 Este 9 Este 0 -- -- 77
2019-08-01 04:00:00 23.2 4 Este 10 Nordeste 0 -- -- 75
2019-08-01 03:00:00 22.9 9 Nordeste 13 Sudeste 0 -- -- 76
2019-08-01 02:00:00 23.2 9 Sudeste 15 Sudeste 0 -- -- 77
2019-08-01 01:00:00 23.4 3 Sudeste 7 Sudeste 0 -- -- 76
2019-08-01 00:00:00 23.7 4 Sudeste 15 Sudeste 0 -- -- 74
2019-07-31 23:00:00 24 9 Sur 20 Sur 0 -- -- 74
2019-07-31 22:00:00 24.4 13 Sudeste 32 Sudeste 0 -- -- 72
2019-07-31 21:00:00 25.3 23 Sudeste 37 Sudeste 0 -- -- 68
2019-07-31 20:00:00 26.4 23 Sudeste 40 Sudeste 0 -- -- 63
2019-07-31 19:00:00 27.5 29 Sudeste 42 Sudeste 0 -- -- 60
2019-07-31 18:00:00 28.7 28 Sudeste 42 Sur 0 -- -- 55
2019-07-31 17:00:00 29.6 25 Sudeste 41 Sudeste 0 -- -- 48
2019-07-31 16:00:00 29.5 24 Sudeste 48 Sudeste 0 -- -- 48
2019-07-31 15:00:00 29.4 29 Sudeste 45 Sudeste 0 -- -- 50
2019-07-31 14:00:00 30.2 29 Sur 43 Sur 0 -- -- 47
2019-07-31 13:00:00 29.4 27 Sur 41 Sudeste 0 -- -- 52
2019-07-31 12:00:00 27.5 21 Sur 36 Sur 0 -- -- 62
2019-07-31 11:00:00 26.5 20 Sur 33 Sur 0 -- -- 65
2019-07-31 10:00:00 24.7 19 Sur 28 Sur 0 -- -- 69
2019-07-31 09:00:00 22.2 10 Sudeste 16 Sudeste 0 -- -- 75
2019-07-31 08:00:00 21.7 4 Este 11 Este 0 -- -- 74
2019-07-31 07:00:00 21.5 8 Nordeste 13 Nordeste 0 -- -- 77
2019-07-31 06:00:00 21.8 9 Nordeste 12 Nordeste 0 -- -- 77
2019-07-31 05:00:00 22.1 9 Nordeste 11 Nordeste 0 -- -- 78
2019-07-31 04:00:00 22.5 2 Nordeste 13 Sur 0 -- -- 78
2019-07-31 03:00:00 22.8 9 Sur 27 Sur 0 -- -- 77
2019-07-31 02:00:00 23.7 19 Sur 26 Sur 0 -- -- 70
2019-07-31 01:00:00 25.4 5 Sudeste 20 Sur 0 -- -- 51
2019-07-31 00:00:00 27 12 Sur 21 Sur 0 -- -- 42
2019-07-30 23:00:00 28 10 Sudeste 18 Sur 0 -- -- 37
2019-07-30 22:00:00 29 4 Sur 18 Sur 0 -- -- 34
2019-07-30 21:00:00 30.6 15 Sur 20 Sur 0 -- -- 34
2019-07-30 20:00:00 33.6 13 Sudeste 24 Sur 0 -- -- 26
2019-07-30 19:00:00 34.9 15 Sudeste 23 Sur 0 -- -- 25
2019-07-30 18:00:00 36.2 17 Sudeste 28 Sur 0 -- -- 23
2019-07-30 17:00:00 36.3 21 Sur 31 Sur 0 -- -- 23
2019-07-30 16:00:00 36.4 19 Sur 33 Sur 0 -- -- 26
2019-07-30 15:00:00 36.9 9 Sudeste 18 Sudoeste 0 -- -- 26
2019-07-30 14:00:00 36 10 Sudoeste 18 Sudoeste 0 -- -- 24
2019-07-30 13:00:00 33.9 4 Norte 20 Noroeste 0 -- -- 29
2019-07-30 12:00:00 32.3 10 Noroeste 24 Noroeste 0 -- -- 31
2019-07-30 11:00:00 29.7 13 Noroeste 28 Oeste 0 -- -- 33
2019-07-30 10:00:00 27.7 13 Noroeste 25 Noroeste 0 -- -- 35
2019-07-30 09:00:00 25.4 12 Noroeste 28 Noroeste 0 -- -- 40
2019-07-30 08:00:00 24.2 10 Noroeste 27 Oeste 0 -- -- 41
2019-07-30 07:00:00 24.6 15 Noroeste 29 Noroeste 0 -- -- 41
2019-07-30 06:00:00 25.1 12 Noroeste 33 Oeste 0 -- -- 41
2019-07-30 05:00:00 25.8 15 Noroeste 35 Norte 0 -- -- 40
2019-07-30 04:00:00 26.5 14 Noroeste 38 Oeste 0 -- -- 42
2019-07-30 03:00:00 27.1 14 Noroeste 34 Oeste 0 -- -- 42
2019-07-30 02:00:00 27.9 12 Noroeste 27 Noroeste 0 -- -- 41
2019-07-30 01:00:00 28.1 9 Norte 26 Noroeste 0 -- -- 40
2019-07-30 00:00:00 29.1 12 Noroeste 32 Noroeste 0 -- -- 38
2019-07-29 23:00:00 30.2 17 Noroeste 33 Noroeste 0 -- -- 33
2019-07-29 22:00:00 31.7 14 Noroeste 32 Oeste 0 -- -- 28
2019-07-29 21:00:00 33.9 18 Noroeste 30 Oeste 0 -- -- 30
2019-07-29 20:00:00 36.1 12 Noroeste 24 Noroeste 0 -- -- 27
2019-07-29 19:00:00 37.1 9 Noroeste 32 Oeste 0 -- -- 25
2019-07-29 18:00:00 37.6 17 Oeste 29 Oeste 0 -- -- 24
2019-07-29 17:00:00 37.4 14 Oeste 28 Oeste 0 -- -- 25
2019-07-29 16:00:00 36.2 14 Noroeste 31 Noroeste 0 -- -- 25
2019-07-29 15:00:00 35.4 13 Oeste 31 Oeste 0 -- -- 27
2019-07-29 14:00:00 33.6 18 Noroeste 31 Oeste 0 -- -- 33
2019-07-29 13:00:00 32.1 13 Oeste 29 Oeste 0 -- -- 37
2019-07-29 12:00:00 30 18 Oeste 30 Oeste 0 -- -- 43
2019-07-29 11:00:00 28 11 Noroeste 24 Oeste 0 -- -- 47
2019-07-29 10:00:00 26.6 6 Noroeste 18 Norte 0 -- -- 52
2019-07-29 09:00:00 24 9 Noroeste 20 Noroeste 0 -- -- 60
2019-07-29 08:00:00 22.4 12 Noroeste 19 Noroeste 0 -- -- 64
2019-07-29 07:00:00 22.4 11 Noroeste 19 Noroeste 0 -- -- 63
2019-07-29 06:00:00 23 8 Noroeste 19 Oeste 0 -- -- 62
2019-07-29 05:00:00 23.2 9 Norte 15 Noroeste 0 -- -- 61
2019-07-29 04:00:00 23.6 10 Norte 17 Noroeste 0 -- -- 60
2019-07-29 03:00:00 23.5 7 Noroeste 16 Norte 0 -- -- 58
2019-07-29 02:00:00 23.7 2 Norte 6 Sudeste 0 -- -- 51
2019-07-29 01:00:00 24.6 3 Este 9 Sudeste 0 -- -- 51
2019-07-29 00:00:00 25.4 5 Sudeste 12 Sudeste 0 -- -- 49
2019-07-28 23:00:00 27.1 3 Este 12 Sur 0 -- -- 43
2019-07-28 22:00:00 28.3 5 Sur 12 Sur 0 -- -- 40
2019-07-28 21:00:00 29.6 9 Sur 18 Sur 0 -- -- 39
2019-07-28 20:00:00 31.5 13 Sur 23 Sur 0 -- -- 36
2019-07-28 19:00:00 31.8 17 Sudeste 24 Sur 0 -- -- 36
2019-07-28 18:00:00 32.1 18 Sudeste 28 Sudeste 0 -- -- 35
2019-07-28 17:00:00 31.9 21 Sudeste 32 Sudeste 0 -- -- 36
2019-07-28 16:00:00 31.7 22 Sudeste 37 Sudeste 0 -- -- 37
2019-07-28 15:00:00 31.5 23 Sudeste 37 Sudeste 0 -- -- 36
2019-07-28 14:00:00 30.9 7 Sur 19 Sur 0 -- -- 42
2019-07-28 13:00:00 29.4 6 Sur 21 Oeste 0 -- -- 45
2019-07-28 12:00:00 27.6 13 Oeste 26 Sudoeste 0 -- -- 52
2019-07-28 11:00:00 25.6 13 Oeste 25 Noroeste 0 -- -- 59
2019-07-28 10:00:00 24.8 8 Noroeste 23 Oeste 0 -- -- 63
2019-07-28 09:00:00 23.1 8 Noroeste 28 Norte 0 -- -- 68
2019-07-28 08:00:00 21.5 10 Noroeste 20 Norte 0 -- -- 70
2019-07-28 07:00:00 21.5 10 Norte 24 Noroeste 0 -- -- 70
2019-07-28 06:00:00 21.6 7 Noroeste 22 Norte 0 -- -- 71
2019-07-28 05:00:00 22 10 Norte 21 Noroeste 0 -- -- 71
2019-07-28 04:00:00 22.4 10 Norte 25 Noroeste 0 -- -- 70
2019-07-28 03:00:00 22.8 10 Noroeste 23 Noroeste 0 -- -- 68
2019-07-28 02:00:00 22.9 12 Noroeste 28 Noroeste 0 -- -- 68
2019-07-28 01:00:00 23.1 14 Norte 32 Noroeste 0 -- -- 68
2019-07-28 00:00:00 23.5 17 Noroeste 33 Noroeste 0 -- -- 66
2019-07-27 23:00:00 23.9 13 Noroeste 28 Noroeste 0 -- -- 65
2019-07-26 12:00:00 -- -- -- -- -- -- -- -- --
2019-07-26 11:00:00 28.3 12 Oeste 24 Oeste 0 -- -- 48
2019-07-26 10:00:00 27.6 11 Noroeste 24 Oeste 0 -- -- 44
2019-07-26 09:00:00 25.7 7 Noroeste 18 Noroeste 0 -- -- 45
2019-07-26 08:00:00 22.9 4 Noroeste 15 Norte 0 -- -- 49
2019-07-26 07:00:00 23.6 3 Norte 10 Noroeste 0 -- -- 46
2019-07-26 06:00:00 22.9 6 Noroeste 12 Norte 0 -- -- 53
2019-07-26 05:00:00 22.2 3 Nordeste 6 Norte 0 -- -- 62
2019-07-26 04:00:00 22.4 0 Calma 9 Noroeste 0 -- -- 65
2019-07-26 03:00:00 23 4 Nordeste 9 Norte 0 -- -- 67
2019-07-26 02:00:00 24.2 3 Sudeste 11 Sudeste 0 -- -- 65
2019-07-26 01:00:00 25 4 Este 12 Sur 0 -- -- 63
2019-07-26 00:00:00 25.9 3 Sudeste 13 Sudeste 0 -- -- 57
2019-07-25 23:00:00 27.6 9 Sudeste 14 Sudeste 0 -- -- 47
2019-07-25 22:00:00 29.1 7 Sudoeste 16 Sur 0 -- -- 42
2019-07-25 21:00:00 31.1 11 Sur 21 Sudeste 0 -- -- 36
2019-07-25 20:00:00 33 14 Sur 23 Sur 0 -- -- 34
2019-07-25 19:00:00 34.1 14 Sur 28 Sur 0 -- -- 32
2019-07-25 18:00:00 34.3 15 Sudeste 27 Sur 0 -- -- 31
2019-07-25 17:00:00 34.4 17 Sudeste 31 Sudeste 0 -- -- 31
2019-07-25 16:00:00 34 20 Sudeste 32 Sudeste 0 -- -- 32
2019-07-25 15:00:00 34 20 Sudeste 32 Sudeste 0 -- -- 32
2019-07-25 14:00:00 33.4 23 Sudeste 34 Sur 0 -- -- 31
2019-07-25 13:00:00 33.1 21 Sudeste 30 Sudeste 0 -- -- 32
2019-07-25 12:00:00 32 17 Sur 24 Sudoeste 0 -- -- 38
2019-07-25 11:00:00 30.4 12 Sur 16 Sur 0 -- -- 42
2019-07-25 10:00:00 26.1 4 Sur 6 Sur 0 -- -- 54
2019-07-25 09:00:00 22.8 2 Sudoeste 4 Norte 0 -- -- 61
2019-07-25 08:00:00 21.6 0 Calma 7 Norte 0 -- -- 65
2019-07-25 07:00:00 21.5 2 Oeste 4 Noroeste 0 -- -- 66
2019-07-25 06:00:00 21.8 0 Calma 5 Noroeste 0 -- -- 63
2019-07-25 05:00:00 22.4 5 Noroeste 7 Norte 0 -- -- 62
2019-07-25 04:00:00 23.1 0 Calma 12 Este 0 -- -- 59
2019-07-25 03:00:00 23.7 3 Este 10 Este 0 -- -- 58
2019-07-25 02:00:00 24.4 8 Este 12 Este 0 -- -- 57
2019-07-25 01:00:00 25.1 6 Este 9 Sudeste 0 -- -- 58
2019-07-25 00:00:00 25.6 3 Sudeste 14 Sudeste 0 -- -- 57
2019-07-24 23:00:00 26.4 11 Sudeste 18 Sudeste 0 -- -- 53
2019-07-24 22:00:00 27.7 9 Sur 17 Sudeste 0 -- -- 49
2019-07-24 21:00:00 30.4 14 Sur 23 Sur 0 -- -- 41
2019-07-24 20:00:00 32.8 17 Sur 28 Sur 0 -- -- 35
2019-07-24 19:00:00 34.3 16 Sur 28 Sudeste 0 -- -- 31
2019-07-24 18:00:00 33.9 18 Sudeste 32 Sudeste 0 -- -- 29
2019-07-24 17:00:00 34.5 22 Sudeste 35 Sur 0 -- -- 28
2019-07-24 16:00:00 34.8 23 Sur 37 Sur 0 -- -- 27
2019-07-24 15:00:00 34.4 24 Sur 39 Sur 0 -- -- 29
2019-07-24 14:00:00 33.8 26 Sur 38 Sur 0 -- -- 30
2019-07-24 13:00:00 32.8 24 Sur 33 Sur 0 -- -- 33
2019-07-24 12:00:00 31.7 15 Sur 25 Sur 0 -- -- 40
2019-07-24 11:00:00 29.3 18 Sur 22 Sur 0 -- -- 45
2019-07-24 10:00:00 26.1 6 Sudeste 9 Sudeste 0 -- -- 56
2019-07-24 09:00:00 22.8 3 Este 5 Este 0 -- -- 59
2019-07-24 08:00:00 21.2 0 Calma 4 Sur 0 -- -- 71
2019-07-24 07:00:00 21.1 0 Calma 3 Nordeste 0 -- -- 72
2019-07-24 06:00:00 21.5 2 Norte 4 Norte 0 -- -- 69
2019-07-24 05:00:00 22 2 Norte 8 Noroeste 0 -- -- 72
2019-07-24 04:00:00 22.6 5 Norte 8 Norte 0 -- -- 70
2019-07-24 03:00:00 23.3 2 Norte 6 Oeste 0 -- -- 71
2019-07-24 02:00:00 24.1 4 Nordeste 8 Sudoeste 0 -- -- 69
2019-07-24 01:00:00 24.6 4 Sudoeste 10 Sudoeste 0 -- -- 67
2019-07-24 00:00:00 25.4 8 Sur 15 Sur 0 -- -- 62
2019-07-23 23:00:00 27 3 Sudeste 14 Sur 0 -- -- 54
2019-07-23 22:00:00 28.7 11 Sur 17 Sur 0 -- -- 43
2019-07-23 21:00:00 31.3 17 Sudeste 27 Sur 0 -- -- 31
2019-07-23 20:00:00 32.5 16 Sudeste 28 Sur 0 -- -- 29
2019-07-23 19:00:00 33.4 18 Sur 33 Sur 0 -- -- 28
2019-07-23 18:00:00 34.1 19 Sudeste 33 Sur 0 -- -- 30
2019-07-23 17:00:00 35.2 21 Sur 38 Sur 0 -- -- 28
2019-07-23 16:00:00 35 23 Sur 38 Sudeste 0 -- -- 27
2019-07-23 15:00:00 34.7 30 Sur 48 Sur 0 -- -- 28
2019-07-23 14:00:00 34.2 28 Sur 42 Sur 0 -- -- 29
2019-07-23 13:00:00 32.5 22 Sur 32 Sur 0 -- -- 39
2019-07-23 12:00:00 31 15 Sur 28 Sur 0 -- -- 43
2019-07-23 11:00:00 29.4 13 Sudeste 18 Sudeste 0 -- -- 49
2019-07-23 10:00:00 26.6 5 Sudeste 12 Sudeste 0 -- -- 62
2019-07-23 09:00:00 23.1 0 Calma 7 Sudoeste 0 -- -- 77
2019-07-23 08:00:00 22 0 Calma 6 Sudoeste 0 -- -- 81
2019-07-23 07:00:00 22.4 4 Nordeste 7 Nordeste 0 -- -- 79
2019-07-23 06:00:00 22.6 2 Nordeste 12 Nordeste 0 -- -- 81
2019-07-23 05:00:00 23.2 3 Norte 7 Norte 0 -- -- 80
2019-07-23 04:00:00 23.7 6 Nordeste 16 Este 0 -- -- 79
2019-07-23 03:00:00 23.7 9 Este 10 Este 0 -- -- 81
2019-07-23 02:00:00 24.1 6 Sudeste 14 Sudeste 0 -- -- 81
2019-07-23 01:00:00 24.4 11 Sudeste 18 Sudeste 0 -- -- 79
2019-07-23 00:00:00 24.9 10 Sudeste 31 Este 0 -- -- 77
2019-07-22 23:00:00 24.7 21 Sudeste 30 Este 0 -- -- 77
2019-07-22 22:00:00 24.9 18 Sudeste 29 Sudeste 0 -- -- 77
2019-07-22 21:00:00 27.2 15 Sudeste 29 Sur 0 -- -- 64
2019-07-22 20:00:00 29.4 14 Sudeste 28 Sur 0 -- -- 56
2019-07-22 19:00:00 30.5 15 Sudeste 24 Sur 0 -- -- 52
2019-07-22 18:00:00 31 17 Sudeste 30 Sudeste 0 -- -- 49
2019-07-22 17:00:00 30.7 22 Este 35 Sur 0 -- -- 50
2019-07-22 16:00:00 31.8 23 Sur 37 Sur 0 -- -- 47
2019-07-22 15:00:00 32.5 21 Sur 31 Sudeste 0 -- -- 46
2019-07-22 14:00:00 31.6 20 Sudeste 38 Sur 0 -- -- 47
2019-07-22 13:00:00 30.8 25 Sur 36 Sur 0 -- -- 51
2019-07-22 12:00:00 29.3 21 Sur 32 Sur 0 -- -- 60
2019-07-22 11:00:00 27.7 13 Sur 24 Sur 0 -- -- 66
2019-07-22 10:00:00 25.7 12 Sudeste 19 Sur 0 -- -- 74
2019-07-22 09:00:00 24.2 2 Este 7 Este 0 -- -- 79
2019-07-22 08:00:00 22.8 4 Sudeste 10 Este 0 -- -- 79
2019-07-22 07:00:00 23 7 Este 12 Este 0 -- -- 79
2019-07-22 06:00:00 23 3 Este 6 Norte 0 -- -- 79
2019-07-22 05:00:00 23.4 2 Oeste 11 Este 0 -- -- 79
2019-07-22 04:00:00 23.8 6 Sudeste 13 Sudeste 0 -- -- 79
2019-07-22 03:00:00 23.9 3 Sudeste 6 Oeste 0 -- -- 77
2019-07-22 02:00:00 24.3 2 Sudoeste 6 Sudoeste 0 -- -- 76
2019-07-22 01:00:00 24.7 0 Calma 6 Sur 0 -- -- 76
2019-07-22 00:00:00 25.1 5 Sudeste 16 Sudeste 0 -- -- 74
2019-07-21 23:00:00 25.8 11 Sudeste 23 Este 0 -- -- 69
2019-07-21 22:00:00 26.9 8 Este 22 Sur 0 -- -- 61
2019-07-21 21:00:00 29.1 15 Sur 22 Sur 0 -- -- 53
2019-07-21 20:00:00 30.9 14 Sudeste 23 Sur 0 -- -- 48
2019-07-21 19:00:00 32.3 13 Sudeste 26 Sur 0 -- -- 46
2019-07-21 18:00:00 32.9 17 Sudeste 26 Sudeste 0 -- -- 44
2019-07-21 17:00:00 33.5 14 Sudeste 27 Sur 0 -- -- 43
2019-07-21 16:00:00 33.4 12 Sur 33 Sur 0 -- -- 45
2019-07-21 15:00:00 33.6 17 Sur 26 Sur 0 -- -- 48
2019-07-21 14:00:00 32.7 18 Sur 31 Sur 0 -- -- 49
2019-07-21 13:00:00 31.8 19 Sur 28 Sur 0 -- -- 51
2019-07-21 12:00:00 30.4 15 Sur 22 Sur 0 -- -- 51
2019-07-21 11:00:00 29.2 12 Sur 20 Sur 0 -- -- 52
2019-07-21 10:00:00 27.3 13 Sudeste 18 Sudeste 0 -- -- 57
2019-07-21 09:00:00 24.5 11 Sudeste 18 Sur 0 -- -- 64
2019-07-21 08:00:00 23.9 6 Sudeste 15 Norte 0 -- -- 63
2019-07-21 07:00:00 24 8 Norte 21 Norte 0 -- -- 63
2019-07-21 06:00:00 23 2 Norte 10 Noroeste 0 -- -- 63
2019-07-21 05:00:00 23.4 3 Oeste 5 Oeste 0 -- -- 63
2019-07-21 04:00:00 23.6 4 Oeste 10 Nordeste 0 -- -- 66
2019-07-21 03:00:00 24.2 8 Nordeste 9 Nordeste 0 -- -- 61
2019-07-21 02:00:00 24.5 3 Oeste 9 Oeste 0 -- -- 60
2019-07-21 01:00:00 25.3 6 Nordeste 9 Nordeste 0 -- -- 58
2019-07-21 00:00:00 25.5 4 Sudeste 9 Sudeste 0 -- -- 61
2019-07-20 23:00:00 26.3 5 Sur 12 Este 0 -- -- 58
2019-07-20 22:00:00 27.4 9 Sur 22 Sur 0 -- -- 55
2019-07-20 21:00:00 29.8 17 Sur 23 Sur 0 -- -- 48
2019-07-20 20:00:00 31.8 15 Sur 27 Sur 0 -- -- 43
2019-07-20 19:00:00 33.1 19 Sur 26 Sur 0 -- -- 40
2019-07-20 18:00:00 34.2 17 Sur 30 Sur 0 -- -- 37
2019-07-20 17:00:00 35.8 19 Sur 32 Sudeste 0 -- -- 33
2019-07-20 16:00:00 36.7 18 Sudeste 32 Sur 0 -- -- 30
2019-07-20 15:00:00 39 8 Sudoeste 27 Oeste 0 -- -- 25
2019-07-20 14:00:00 37.9 12 Sudoeste 19 Norte 0 -- -- 26
2019-07-20 13:00:00 36.2 7 Noroeste 28 Oeste 0 -- -- 28
2019-07-20 12:00:00 34.5 9 Noroeste 21 Norte 0 -- -- 30
2019-07-20 11:00:00 32.4 11 Noroeste 23 Noroeste 0 -- -- 34
2019-07-20 10:00:00 29.2 12 Noroeste 23 Oeste 0 -- -- 40
2019-07-20 09:00:00 26.3 3 Norte 10 Noroeste 0 -- -- 48
2019-07-20 08:00:00 22.6 0 Calma 10 Nordeste 0 -- -- 59
2019-07-20 07:00:00 22.6 6 Nordeste 9 Este 0 -- -- 59
2019-07-20 06:00:00 22.5 6 Noroeste 9 Noroeste 0 -- -- 60
2019-07-20 05:00:00 22.9 0 Calma 4 Noroeste 0 -- -- 59
2019-07-20 04:00:00 23.5 0 Calma 10 Este 0 -- -- 57
2019-07-20 03:00:00 24 8 Este 11 Este 0 -- -- 56
2019-07-20 02:00:00 24.6 8 Este 10 Este 0 -- -- 54
2019-07-20 01:00:00 25.1 3 Sudeste 9 Sudeste 0 -- -- 55
2019-07-20 00:00:00 25.5 7 Sudeste 12 Sudeste 0 -- -- 52
2019-07-19 23:00:00 26.6 5 Sur 10 Sur 0 -- -- 48
2019-07-19 22:00:00 27.7 8 Sudeste 22 Sudeste 0 -- -- 44
2019-07-19 21:00:00 29.3 17 Sudeste 22 Sudeste 0 -- -- 39
2019-07-19 20:00:00 30 16 Sudeste 36 Sudeste 0 -- -- 37
2019-07-19 19:00:00 30.6 25 Sur 34 Sur 0 -- -- 34
2019-07-19 18:00:00 30.8 21 Sur 38 Sudeste 0 -- -- 31
2019-07-19 17:00:00 31.1 23 Sur 37 Sur 0 -- -- 33
2019-07-19 16:00:00 31.6 24 Sur 36 Sur 0 -- -- 35
2019-07-19 15:00:00 31.4 24 Sur 40 Sur 0 -- -- 35
2019-07-19 14:00:00 31.5 23 Sudeste 35 Sur 0 -- -- 37
2019-07-19 13:00:00 30.8 24 Sur 35 Sur 0 -- -- 35
2019-07-19 12:00:00 29 21 Sur 30 Sur 0 -- -- 40
2019-07-19 11:00:00 26.8 12 Sur 18 Sur 0 -- -- 55
2019-07-19 10:00:00 23.6 3 Sudeste 8 Sudeste 0 -- -- 66
2019-07-19 09:00:00 21.5 2 Sudeste 6 Sudoeste 0 -- -- 67
2019-07-19 08:00:00 19.9 2 Norte 9 Nordeste 0 -- -- 65
2019-07-19 07:00:00 20.5 2 Este 8 Nordeste 0 -- -- 66
2019-07-19 06:00:00 20.9 2 Sudeste 8 Sudeste 0 -- -- 64
2019-07-19 05:00:00 21 6 Sudeste 9 Sudeste 0 -- -- 63
2019-07-19 04:00:00 22.1 4 Este 10 Sudeste 0 -- -- 58
2019-07-19 03:00:00 22.8 6 Este 13 Este 0 -- -- 57
2019-07-19 02:00:00 23.6 9 Este 12 Este 0 -- -- 54
2019-07-19 01:00:00 24.2 5 Este 11 Sudeste 0 -- -- 51
2019-07-19 00:00:00 24.6 10 Sudeste 15 Sudeste 0 -- -- 52